Time;durP1;ratioP1;P1;durP2;ratioP2;P2;SDS_P1;SDS_P2;PMS_P1;PMS_P2;Temp;Humidity;BMP_temperature;BMP_pressure;BME280_temperature;BME280_humidity;BME280_pressure;Samples;Min_cycle;Max_cycle;Signal;HPM_P1;HPM_P2
2021/10/16 00:01:37;;;;;;;14.70;8.90;;;10.60;99.90;;;;;;5071468;28;20859;-53
2021/10/16 00:04:03;;;;;;;14.30;9.10;;;10.60;99.90;;;;;;5072492;28;20482;-53
2021/10/16 00:06:28;;;;;;;16.20;9.30;;;10.60;99.90;;;;;;5070966;28;20753;-53
2021/10/16 00:08:54;;;;;;;14.30;8.60;;;10.50;99.90;;;;;;5072314;28;20839;-53
2021/10/16 00:11:19;;;;;;;17.05;9.35;;;10.50;99.90;;;;;;5071695;28;20850;-53
2021/10/16 00:13:45;;;;;;;15.33;9.13;;;10.50;99.90;;;;;;5071691;28;20452;-54
2021/10/16 00:16:11;;;;;;;17.13;9.90;;;10.50;99.90;;;;;;5072222;28;20925;-54
2021/10/16 00:18:37;;;;;;;14.70;8.90;;;10.60;99.90;;;;;;5071207;28;20825;-53
2021/10/16 00:21:04;;;;;;;16.75;10.15;;;10.60;99.90;;;;;;5071717;28;20925;-53
2021/10/16 00:23:30;;;;;;;15.20;8.60;;;10.60;99.90;;;;;;5070921;28;20415;-53
2021/10/16 00:25:56;;;;;;;15.97;9.00;;;10.50;99.90;;;;;;5072126;28;20391;-53
2021/10/16 00:28:22;;;;;;;16.70;9.48;;;10.60;99.90;;;;;;5070760;28;20860;-58
2021/10/16 00:30:47;;;;;;;17.92;9.32;;;10.50;99.90;;;;;;5070919;28;20836;-53
2021/10/16 00:33:14;;;;;;;16.30;9.70;;;10.60;99.90;;;;;;5070911;28;20388;-53
2021/10/16 00:35:41;;;;;;;16.48;9.95;;;10.60;99.90;;;;;;5070734;28;20422;-54
2021/10/16 00:38:06;;;;;;;14.95;8.95;;;10.50;99.90;;;;;;5072236;28;20383;-54
2021/10/16 00:40:33;;;;;;;13.88;9.02;;;10.50;99.90;;;;;;5057558;28;20391;-53
2021/10/16 00:42:58;;;;;;;14.50;9.55;;;10.50;99.90;;;;;;5071703;28;20403;-54
2021/10/16 00:45:25;;;;;;;15.70;9.53;;;10.50;99.90;;;;;;5071500;28;20387;-54
2021/10/16 00:47:51;;;;;;;16.40;9.57;;;10.60;99.90;;;;;;5071658;28;20423;-53
2021/10/16 00:50:18;;;;;;;18.88;10.60;;;10.60;99.90;;;;;;5071363;28;20380;-53
2021/10/16 00:52:45;;;;;;;17.80;10.80;;;10.70;99.90;;;;;;5071063;28;20380;-53
2021/10/16 00:55:13;;;;;;;16.02;10.30;;;10.70;99.90;;;;;;5071319;28;20387;-53
2021/10/16 00:57:39;;;;;;;18.25;11.15;;;10.70;99.90;;;;;;5070766;28;20463;-54
2021/10/16 01:00:07;;;;;;;17.67;10.10;;;10.60;99.90;;;;;;5071117;28;20529;-54
2021/10/16 01:02:33;;;;;;;17.63;10.10;;;10.60;99.90;;;;;;5070152;28;20368;-53
2021/10/16 01:05:00;;;;;;;18.10;10.00;;;10.70;99.90;;;;;;5071431;28;20402;-54
2021/10/16 01:07:26;;;;;;;18.30;10.65;;;10.80;99.90;;;;;;5069768;28;20391;-54
2021/10/16 01:09:53;;;;;;;16.45;10.00;;;10.80;99.90;;;;;;5071115;28;20376;-54
2021/10/16 01:12:19;;;;;;;17.67;9.85;;;10.80;99.90;;;;;;5070613;28;20488;-58
2021/10/16 01:14:51;;;;;;;16.07;9.70;;;10.80;99.90;;;;;;5070438;28;21131;-53
2021/10/16 01:17:21;;;;;;;17.10;10.40;;;10.90;99.90;;;;;;5070992;28;20372;-53
2021/10/16 01:20:00;;;;;;;16.40;10.60;;;10.90;99.90;;;;;;5070401;28;20387;-53
2021/10/16 01:22:27;;;;;;;16.98;10.77;;;10.90;99.90;;;;;;5069595;28;20928;-53
2021/10/16 01:24:54;;;;;;;18.92;11.10;;;10.70;99.90;;;;;;5070982;28;20445;-53
2021/10/16 01:27:20;;;;;;;18.90;10.35;;;10.70;99.90;;;;;;5070600;28;20372;-58
2021/10/16 01:29:46;;;;;;;18.67;11.10;;;10.60;99.90;;;;;;5070287;28;20386;-55
2021/10/16 01:32:12;;;;;;;17.55;10.65;;;10.60;99.90;;;;;;5070534;28;20410;-54
2021/10/16 01:34:38;;;;;;;15.52;10.35;;;10.70;99.90;;;;;;5057011;28;20395;-52
2021/10/16 01:37:04;;;;;;;17.47;10.27;;;10.70;99.90;;;;;;5068889;28;20406;-54
2021/10/16 01:39:30;;;;;;;17.35;10.95;;;10.70;99.90;;;;;;5069854;28;20800;-53
2021/10/16 01:41:56;;;;;;;17.83;11.70;;;10.80;99.90;;;;;;5070402;28;20391;-54
2021/10/16 01:44:23;;;;;;;16.92;10.75;;;10.70;99.90;;;;;;5069391;28;20418;-58
2021/10/16 01:46:48;;;;;;;18.52;12.45;;;10.80;99.90;;;;;;5070554;28;20870;-54
2021/10/16 01:49:18;;;;;;;18.63;11.73;;;10.90;99.90;;;;;;5070052;28;20372;-54
2021/10/16 01:51:46;;;;;;;19.38;11.68;;;10.90;99.90;;;;;;5069228;28;20382;-54
2021/10/16 01:54:13;;;;;;;17.95;11.70;;;10.90;99.90;;;;;;5070509;28;20383;-54
2021/10/16 01:56:38;;;;;;;17.15;11.13;;;10.90;99.90;;;;;;5069469;28;20377;-54
2021/10/16 01:59:21;;;;;;;19.05;12.18;;;10.80;99.90;;;;;;5068993;28;20392;-54
2021/10/16 02:01:47;;;;;;;18.15;12.15;;;10.80;99.90;;;;;;5069803;28;20391;-54
2021/10/16 02:04:14;;;;;;;19.80;11.85;;;10.70;99.90;;;;;;5070007;28;20408;-55
2021/10/16 02:06:41;;;;;;;19.48;11.82;;;10.70;99.90;;;;;;5069164;28;20498;-55
2021/10/16 02:09:07;;;;;;;18.88;11.50;;;10.70;99.90;;;;;;5070138;28;20494;-55
2021/10/16 02:11:33;;;;;;;18.05;11.35;;;10.60;99.90;;;;;;5067966;28;20434;-54
2021/10/16 02:14:01;;;;;;;22.20;11.67;;;10.60;99.90;;;;;;5069580;28;20411;-52
2021/10/16 02:16:28;;;;;;;18.80;11.52;;;10.70;99.90;;;;;;5069210;28;20429;-52
2021/10/16 02:18:53;;;;;;;20.27;11.50;;;10.70;99.90;;;;;;5057130;28;20372;-52
2021/10/16 02:21:20;;;;;;;19.42;12.15;;;10.70;99.90;;;;;;5069363;28;20380;-52
2021/10/16 02:23:45;;;;;;;20.77;11.98;;;10.70;99.90;;;;;;5069228;28;20481;-52
2021/10/16 02:26:11;;;;;;;21.35;12.45;;;10.60;99.90;;;;;;5069865;28;20483;-52
2021/10/16 02:28:37;;;;;;;20.43;11.53;;;10.60;99.90;;;;;;5067830;28;20739;-54
2021/10/16 02:31:03;;;;;;;17.92;10.95;;;10.60;99.90;;;;;;5069592;28;20376;-55
2021/10/16 02:33:28;;;;;;;17.17;11.20;;;10.50;99.90;;;;;;5069218;28;20422;-54
2021/10/16 02:35:54;;;;;;;15.80;10.47;;;10.60;99.90;;;;;;5069662;28;20371;-55
2021/10/16 02:38:20;;;;;;;17.63;11.38;;;10.60;99.90;;;;;;5069656;28;20905;-55
2021/10/16 02:40:45;;;;;;;16.20;10.50;;;10.50;99.90;;;;;;5068844;28;20376;-54
2021/10/16 02:43:11;;;;;;;18.70;11.93;;;10.40;99.90;;;;;;5069517;28;20396;-55
2021/10/16 02:45:36;;;;;;;16.10;10.33;;;10.50;99.90;;;;;;5068970;28;20903;-54
2021/10/16 02:48:02;;;;;;;19.70;11.00;;;10.40;99.90;;;;;;5069569;28;20375;-54
2021/10/16 02:50:28;;;;;;;16.80;10.95;;;10.40;99.90;;;;;;5068722;28;20454;-54
2021/10/16 02:52:53;;;;;;;15.60;10.33;;;10.30;99.90;;;;;;5069175;28;20379;-54
2021/10/16 02:55:19;;;;;;;17.60;10.30;;;10.20;99.90;;;;;;5069645;28;20398;-54
2021/10/16 02:57:45;;;;;;;18.30;10.47;;;10.20;99.90;;;;;;5068732;28;20464;-56
2021/10/16 03:00:11;;;;;;;14.60;9.63;;;10.10;99.90;;;;;;5068027;28;20778;-54
2021/10/16 03:02:37;;;;;;;17.73;11.35;;;10.00;99.90;;;;;;5068840;28;20384;-54
2021/10/16 03:05:03;;;;;;;18.13;11.55;;;9.90;99.90;;;;;;5069405;28;20713;-54
2021/10/16 03:07:30;;;;;;;16.40;11.23;;;9.80;99.90;;;;;;5068256;28;20411;-54
2021/10/16 03:09:56;;;;;;;19.77;11.02;;;9.70;99.90;;;;;;5069322;28;20842;-54
2021/10/16 03:12:22;;;;;;;16.85;10.70;;;9.80;99.90;;;;;;5068721;28;20412;-58
2021/10/16 03:14:47;;;;;;;17.42;11.25;;;9.80;99.90;;;;;;5068590;28;20394;-54
2021/10/16 03:17:13;;;;;;;18.90;10.97;;;9.90;99.90;;;;;;5069419;28;20766;-54
2021/10/16 03:19:39;;;;;;;19.25;10.93;;;9.80;99.90;;;;;;5068280;28;20823;-54
2021/10/16 03:22:05;;;;;;;17.03;10.53;;;9.70;99.90;;;;;;5068668;28;20384;-54
2021/10/16 03:24:31;;;;;;;16.20;10.65;;;9.80;99.90;;;;;;5068218;28;20472;-54
2021/10/16 03:26:56;;;;;;;21.58;10.40;;;9.80;99.90;;;;;;5071603;28;20414;-55
2021/10/16 03:29:22;;;;;;;18.13;11.30;;;9.70;99.90;;;;;;5073148;28;20419;-59
2021/10/16 03:31:48;;;;;;;18.77;10.95;;;9.80;99.90;;;;;;5072191;28;20854;-52
2021/10/16 03:34:13;;;;;;;19.10;11.00;;;9.90;99.90;;;;;;5073075;28;20383;-52
2021/10/16 03:36:40;;;;;;;18.00;10.80;;;10.00;99.90;;;;;;5072368;28;20391;-52
2021/10/16 03:39:05;;;;;;;19.08;11.30;;;10.00;99.90;;;;;;5073225;28;20427;-52
2021/10/16 03:41:31;;;;;;;20.05;11.40;;;9.80;99.90;;;;;;5070900;28;20476;-55
2021/10/16 03:43:57;;;;;;;19.33;12.43;;;9.80;99.90;;;;;;5073153;28;20498;-52
2021/10/16 03:46:22;;;;;;;21.07;13.27;;;9.70;99.90;;;;;;5072487;28;20388;-59
2021/10/16 03:48:48;;;;;;;20.17;12.52;;;9.70;99.90;;;;;;5072549;28;20390;-53
2021/10/16 03:51:14;;;;;;;20.73;12.85;;;9.50;99.90;;;;;;5072723;28;20417;-52
2021/10/16 03:53:39;;;;;;;24.33;13.80;;;9.50;99.90;;;;;;5071813;28;20827;-53
2021/10/16 03:56:05;;;;;;;23.80;14.23;;;9.60;99.90;;;;;;5072986;28;21031;-53
2021/10/16 03:58:32;;;;;;;20.45;12.40;;;9.70;99.90;;;;;;5071958;28;20375;-55
2021/10/16 04:01:01;;;;;;;23.45;13.13;;;9.70;99.90;;;;;;5072503;28;20456;-53
2021/10/16 04:03:27;;;;;;;21.70;13.35;;;9.80;99.90;;;;;;5071288;28;20864;-53
2021/10/16 04:05:53;;;;;;;23.20;12.90;;;9.80;99.90;;;;;;5071325;28;20427;-53
2021/10/16 04:08:18;;;;;;;22.02;13.20;;;9.80;99.90;;;;;;5072024;28;20407;-53
2021/10/16 04:10:45;;;;;;;20.80;12.57;;;9.90;99.90;;;;;;5070912;28;21008;-53
2021/10/16 04:13:11;;;;;;;21.77;13.02;;;9.90;99.90;;;;;;5072261;28;20383;-52
2021/10/16 04:15:37;;;;;;;20.07;12.60;;;9.60;99.90;;;;;;5071224;28;20384;-53
2021/10/16 04:18:03;;;;;;;22.20;13.23;;;9.90;99.90;;;;;;5072176;28;20386;-53
2021/10/16 04:20:29;;;;;;;19.95;13.30;;;9.90;99.90;;;;;;5071770;28;20392;-53
2021/10/16 04:22:55;;;;;;;21.08;12.60;;;9.90;99.90;;;;;;5072189;28;20400;-53
2021/10/16 04:25:21;;;;;;;22.13;12.80;;;9.20;99.90;;;;;;5071817;28;20892;-52
2021/10/16 04:27:47;;;;;;;20.83;12.50;;;9.90;99.90;;;;;;5071592;28;20400;-54
2021/10/16 04:30:13;;;;;;;21.50;13.20;;;9.80;99.90;;;;;;5072203;28;20846;-54
2021/10/16 04:32:39;;;;;;;22.48;13.20;;;9.80;99.90;;;;;;5071246;28;20383;-53
2021/10/16 04:35:06;;;;;;;20.00;12.60;;;9.80;99.90;;;;;;5072141;28;20421;-53
2021/10/16 04:37:34;;;;;;;18.70;12.45;;;9.90;99.90;;;;;;5070356;28;20461;-53
2021/10/16 04:39:59;;;;;;;22.13;13.05;;;10.00;99.90;;;;;;5071783;28;20422;-53
2021/10/16 04:42:25;;;;;;;20.15;12.73;;;9.90;99.90;;;;;;5071728;28;20406;-58
2021/10/16 04:44:51;;;;;;;22.83;12.97;;;9.80;99.90;;;;;;5071528;28;20414;-53
2021/10/16 04:47:17;;;;;;;23.27;12.77;;;9.80;99.90;;;;;;5071175;28;20476;-53
2021/10/16 04:49:42;;;;;;;20.10;12.07;;;9.80;99.90;;;;;;5070874;28;20437;-53
2021/10/16 04:52:08;;;;;;;19.58;12.02;;;9.90;99.90;;;;;;5058672;28;20375;-53
2021/10/16 04:54:34;;;;;;;22.17;13.32;;;10.00;99.90;;;;;;5070706;28;20482;-53
2021/10/16 04:57:00;;;;;;;23.73;12.90;;;10.00;99.90;;;;;;5071682;28;20375;-53
2021/10/16 04:59:26;;;;;;;22.75;12.40;;;9.90;99.90;;;;;;5071085;28;20438;-57
2021/10/16 05:01:54;;;;;;;20.30;12.43;;;9.80;99.90;;;;;;5071331;28;20414;-53
2021/10/16 05:04:20;;;;;;;18.23;11.10;;;9.90;99.90;;;;;;5071551;28;20464;-53
2021/10/16 05:06:45;;;;;;;19.63;12.50;;;9.80;99.90;;;;;;5070355;28;20846;-54
2021/10/16 05:09:11;;;;;;;21.17;12.50;;;9.90;99.90;;;;;;5070720;28;20464;-54
2021/10/16 05:11:37;;;;;;;21.50;12.83;;;9.90;99.90;;;;;;5070811;28;20409;-54
2021/10/16 05:14:02;;;;;;;21.75;13.20;;;10.00;99.90;;;;;;5071024;28;20441;-54
2021/10/16 05:16:30;;;;;;;20.90;12.30;;;10.10;99.90;;;;;;5070311;28;20391;-54
2021/10/16 05:18:56;;;;;;;17.75;12.32;;;10.20;99.90;;;;;;5069849;28;20576;-53
2021/10/16 05:21:21;;;;;;;18.95;12.02;;;10.20;99.90;;;;;;5071475;28;20458;-54
2021/10/16 05:23:47;;;;;;;22.73;12.80;;;10.40;99.90;;;;;;5070064;28;20411;-54
2021/10/16 05:26:12;;;;;;;20.40;12.50;;;10.20;99.90;;;;;;5071181;28;20471;-53
2021/10/16 05:28:38;;;;;;;19.90;12.60;;;10.20;99.90;;;;;;5069966;28;20859;-55
2021/10/16 05:31:04;;;;;;;20.17;12.20;;;10.20;99.90;;;;;;5050583;28;20946;-54
2021/10/16 05:33:29;;;;;;;21.15;11.57;;;10.20;99.90;;;;;;5055310;28;20379;-54
2021/10/16 05:35:55;;;;;;;19.47;12.80;;;10.30;99.90;;;;;;5055561;28;20390;-54
2021/10/16 05:38:21;;;;;;;22.48;12.40;;;10.40;99.90;;;;;;5050296;28;20401;-54
2021/10/16 05:40:46;;;;;;;18.70;12.33;;;10.30;99.90;;;;;;5053276;28;20674;-54
2021/10/16 05:43:12;;;;;;;21.05;13.40;;;10.20;99.90;;;;;;5054752;28;20420;-54
2021/10/16 05:45:38;;;;;;;19.13;12.07;;;10.30;99.90;;;;;;5052456;28;20386;-54
2021/10/16 05:48:04;;;;;;;19.08;12.18;;;10.20;99.90;;;;;;5046092;28;21387;-54
2021/10/16 05:50:31;;;;;;;19.20;11.80;;;10.20;99.90;;;;;;5051014;28;20391;-54
2021/10/16 05:52:57;;;;;;;21.73;12.57;;;10.20;99.90;;;;;;5051227;28;20401;-54
2021/10/16 05:55:23;;;;;;;20.40;12.60;;;10.20;99.90;;;;;;5049490;28;20809;-54
2021/10/16 05:57:48;;;;;;;17.30;11.88;;;10.20;99.90;;;;;;5058127;28;20391;-55
2021/10/16 06:00:14;;;;;;;18.70;12.87;;;10.20;99.90;;;;;;5070122;28;20372;-56
2021/10/16 06:02:40;;;;;;;24.63;15.05;;;10.20;99.90;;;;;;5069136;28;20828;-58
2021/10/16 06:05:06;;;;;;;19.37;13.20;;;10.20;99.90;;;;;;5054658;28;20380;-54
2021/10/16 06:07:31;;;;;;;18.33;12.20;;;10.20;99.90;;;;;;5068169;28;20404;-54
2021/10/16 06:09:57;;;;;;;18.85;12.40;;;10.20;99.90;;;;;;5069872;28;20380;-54
2021/10/16 06:12:23;;;;;;;17.38;12.10;;;10.30;99.90;;;;;;5069502;28;20402;-55
2021/10/16 06:14:48;;;;;;;21.00;12.98;;;10.30;99.90;;;;;;5063125;28;20432;-54
2021/10/16 06:17:14;;;;;;;19.40;12.37;;;10.40;99.90;;;;;;5059620;28;20420;-54
2021/10/16 06:19:41;;;;;;;20.92;11.93;;;10.50;99.90;;;;;;5061339;28;20886;-54
2021/10/16 06:22:06;;;;;;;19.00;12.80;;;10.50;99.90;;;;;;5066264;28;20390;-54
2021/10/16 06:24:32;;;;;;;20.98;12.95;;;10.60;99.90;;;;;;5062750;28;20758;-55
2021/10/16 06:26:58;;;;;;;15.43;11.07;;;10.50;99.90;;;;;;5066998;28;20403;-55
2021/10/16 06:29:23;;;;;;;19.27;12.13;;;10.50;99.90;;;;;;5064543;28;20380;-54
2021/10/16 06:31:49;;;;;;;19.80;11.48;;;10.70;99.90;;;;;;5064228;28;20379;-54
2021/10/16 06:34:14;;;;;;;15.83;11.50;;;10.60;99.90;;;;;;5063871;28;20809;-54
2021/10/16 06:36:40;;;;;;;17.45;11.60;;;10.70;99.90;;;;;;5061901;28;20391;-54
2021/10/16 06:39:06;;;;;;;16.70;11.30;;;10.70;99.90;;;;;;5061836;28;20432;-53
2021/10/16 06:41:31;;;;;;;18.38;11.35;;;10.60;99.90;;;;;;5057118;28;20383;-53
2021/10/16 06:43:57;;;;;;;18.80;11.70;;;10.70;99.90;;;;;;5059535;28;20410;-54
2021/10/16 06:46:23;;;;;;;17.33;11.30;;;10.80;99.90;;;;;;5058405;28;20385;-54
2021/10/16 06:48:49;;;;;;;18.03;12.57;;;10.80;99.90;;;;;;5049878;28;20505;-54
2021/10/16 06:51:16;;;;;;;19.75;12.73;;;10.80;99.90;;;;;;5049223;28;20465;-53
2021/10/16 06:53:42;;;;;;;21.92;13.20;;;10.80;99.90;;;;;;5047675;28;20756;-56
2021/10/16 06:56:07;;;;;;;18.73;12.40;;;10.80;99.90;;;;;;5048078;28;20472;-54
2021/10/16 06:58:33;;;;;;;16.73;11.70;;;11.00;99.90;;;;;;5048271;28;20393;-54
2021/10/16 07:00:59;;;;;;;17.77;11.77;;;11.00;99.90;;;;;;5048590;28;20922;-55
2021/10/16 07:03:28;;;;;;;18.40;11.75;;;11.20;99.90;;;;;;5048443;28;20904;-54
2021/10/16 07:05:53;;;;;;;17.20;11.23;;;11.20;99.90;;;;;;5048703;28;20389;-54
2021/10/16 07:08:19;;;;;;;18.75;11.57;;;11.40;99.90;;;;;;5049047;28;20740;-53
2021/10/16 07:10:45;;;;;;;17.53;12.30;;;11.40;99.90;;;;;;5048117;28;20912;-53
2021/10/16 07:13:11;;;;;;;20.58;12.43;;;11.40;99.90;;;;;;5047982;28;20967;-52
2021/10/16 07:15:37;;;;;;;19.00;11.85;;;11.40;99.90;;;;;;5048064;28;20435;-52
2021/10/16 07:18:03;;;;;;;25.10;17.70;;;11.40;99.90;;;;;;5049271;28;20767;-52
2021/10/16 07:20:28;;;;;;;17.48;11.95;;;11.40;99.90;;;;;;5048326;28;20380;-59
2021/10/16 07:22:54;;;;;;;19.13;12.27;;;11.50;99.90;;;;;;5048815;28;20389;-53
2021/10/16 07:25:21;;;;;;;22.23;12.73;;;11.70;99.90;;;;;;5048445;28;20381;-52
2021/10/16 07:27:47;;;;;;;17.45;12.20;;;11.80;99.90;;;;;;5048056;28;20531;-52
2021/10/16 07:30:14;;;;;;;20.23;12.38;;;11.90;99.90;;;;;;5048836;28;20377;-53
2021/10/16 07:32:39;;;;;;;19.58;12.60;;;11.80;99.90;;;;;;5047589;28;20816;-53
2021/10/16 07:35:05;;;;;;;21.93;12.90;;;11.90;99.90;;;;;;5047427;28;20409;-52
2021/10/16 07:37:31;;;;;;;22.23;11.65;;;11.90;99.90;;;;;;5048438;28;20884;-54
2021/10/16 07:39:56;;;;;;;19.97;13.33;;;12.00;99.90;;;;;;5048624;28;20420;-53
2021/10/16 07:42:22;;;;;;;22.77;12.90;;;12.00;99.90;;;;;;5048958;28;20417;-52
2021/10/16 07:44:47;;;;;;;23.02;14.23;;;12.00;99.90;;;;;;5047656;28;21086;-52
2021/10/16 07:47:13;;;;;;;18.73;13.07;;;12.10;99.90;;;;;;5048708;28;20393;-54
2021/10/16 07:49:39;;;;;;;24.10;14.13;;;12.10;99.90;;;;;;5047703;28;20765;-53
2021/10/16 07:52:04;;;;;;;28.13;14.60;;;12.30;99.90;;;;;;5047098;28;20719;-53
2021/10/16 07:54:30;;;;;;;20.40;13.13;;;12.30;99.90;;;;;;5048019;28;20400;-58
2021/10/16 07:56:57;;;;;;;22.42;13.13;;;12.20;99.90;;;;;;5048474;28;20409;-53
2021/10/16 07:59:23;;;;;;;22.85;13.85;;;12.20;99.90;;;;;;5049148;28;20377;-52
2021/10/16 08:01:48;;;;;;;28.38;15.00;;;12.20;99.90;;;;;;5047889;28;20523;-53
2021/10/16 08:04:14;;;;;;;26.60;15.67;;;12.20;99.90;;;;;;5048791;28;20401;-52
2021/10/16 08:06:40;;;;;;;20.83;13.50;;;12.30;99.90;;;;;;5047390;28;20757;-53
2021/10/16 08:09:06;;;;;;;19.47;11.33;;;12.40;99.90;;;;;;5048917;28;20863;-52
2021/10/16 08:11:31;;;;;;;17.02;11.13;;;12.20;99.90;;;;;;5046413;28;20416;-53
2021/10/16 08:13:57;;;;;;;19.80;11.83;;;12.00;99.90;;;;;;5051327;28;20409;-52
2021/10/16 08:16:23;;;;;;;21.55;12.85;;;11.80;99.90;;;;;;5052323;28;20410;-53
2021/10/16 08:18:48;;;;;;;18.93;12.60;;;11.70;99.90;;;;;;5051459;28;20417;-52
2021/10/16 08:21:14;;;;;;;19.25;12.38;;;11.80;99.90;;;;;;5052494;28;20439;-52
2021/10/16 08:23:39;;;;;;;17.65;12.88;;;11.80;99.90;;;;;;5051141;28;20405;-52
2021/10/16 08:26:06;;;;;;;20.00;12.60;;;11.80;99.90;;;;;;5052374;28;20386;-52
2021/10/16 08:28:31;;;;;;;21.70;12.57;;;12.10;99.90;;;;;;5051758;28;20397;-53
2021/10/16 08:31:00;;;;;;;20.05;13.13;;;12.30;99.90;;;;;;5050814;28;20868;-53
2021/10/16 08:33:26;;;;;;;18.17;13.50;;;12.10;99.90;;;;;;5051954;28;20417;-52
2021/10/16 08:35:51;;;;;;;20.60;13.90;;;12.20;99.90;;;;;;5051315;28;20377;-53
2021/10/16 08:38:18;;;;;;;23.20;15.83;;;12.20;99.90;;;;;;5051522;28;20392;-52
2021/10/16 08:40:44;;;;;;;19.70;13.82;;;12.30;99.90;;;;;;5050738;28;20401;-53
2021/10/16 08:43:09;;;;;;;24.20;13.95;;;12.10;99.90;;;;;;5051622;28;20407;-53
2021/10/16 08:45:36;;;;;;;20.20;14.00;;;12.20;99.90;;;;;;5051311;28;20382;-53
2021/10/16 08:48:06;;;;;;;22.20;14.20;;;12.20;99.90;;;;;;5051895;28;20861;-52
2021/10/16 08:50:33;;;;;;;20.23;13.20;;;12.30;99.90;;;;;;5051258;28;20385;-53
2021/10/16 08:52:59;;;;;;;18.88;13.68;;;12.40;99.90;;;;;;5051856;28;20405;-52
2021/10/16 08:55:24;;;;;;;19.70;12.90;;;12.40;99.90;;;;;;5051361;28;20423;-53
2021/10/16 08:57:50;;;;;;;21.35;14.25;;;12.40;99.90;;;;;;5050552;28;20381;-52
2021/10/16 09:00:43;;;;;;;25.33;14.40;;;12.30;99.90;;;;;;5051155;28;20926;-53
2021/10/16 09:03:45;;;;;;;23.80;14.55;;;12.40;99.90;;;;;;5051005;28;20888;-53
2021/10/16 09:06:40;;;;;;;20.53;13.93;;;12.50;99.90;;;;;;5050763;28;20424;-53
2021/10/16 09:09:10;;;;;;;21.23;13.37;;;12.30;99.90;;;;;;5049662;28;20420;-53
2021/10/16 09:11:37;;;;;;;23.13;15.05;;;12.20;99.90;;;;;;5050166;28;20380;-53
2021/10/16 09:14:18;;;;;;;23.20;14.50;;;12.20;99.90;;;;;;5050925;28;20919;-54
2021/10/16 09:16:47;;;;;;;23.10;15.35;;;12.30;99.90;;;;;;5050132;28;20864;-54
2021/10/16 09:19:21;;;;;;;28.27;15.20;;;12.60;99.90;;;;;;5050772;28;20392;-54
2021/10/16 09:21:56;;;;;;;25.00;15.80;;;12.60;99.90;;;;;;5050414;28;20458;-53
2021/10/16 09:24:31;;;;;;;26.17;17.05;;;12.60;99.90;;;;;;5049977;28;20547;-52
2021/10/16 09:27:00;;;;;;;28.00;17.02;;;12.60;99.90;;;;;;5050303;28;20481;-53
2021/10/16 09:29:28;;;;;;;26.40;16.40;;;12.70;99.90;;;;;;5050636;28;20811;-53
2021/10/16 09:32:00;;;;;;;25.30;16.43;;;12.70;99.90;;;;;;5050037;28;20459;-53
2021/10/16 09:34:28;;;;;;;28.17;16.33;;;12.60;99.90;;;;;;5050706;28;20439;-52
2021/10/16 09:37:13;;;;;;;32.03;17.45;;;12.80;99.90;;;;;;5049642;28;20484;-53
2021/10/16 09:39:49;;;;;;;33.92;17.80;;;12.60;99.90;;;;;;5049783;28;20386;-54
2021/10/16 09:42:37;;;;;;;35.53;19.25;;;12.40;99.90;;;;;;5050927;28;20378;-53
2021/10/16 09:45:08;;;;;;;34.63;18.60;;;12.30;99.90;;;;;;5048804;28;20433;-53
2021/10/16 09:47:34;;;;;;;29.73;17.87;;;12.40;99.90;;;;;;5049208;28;20389;-54
2021/10/16 09:50:06;;;;;;;30.30;18.10;;;12.40;99.90;;;;;;5050342;28;20397;-53
2021/10/16 09:52:37;;;;;;;31.08;18.88;;;12.40;99.90;;;;;;5047421;28;20480;-58
2021/10/16 09:55:04;;;;;;;34.50;19.20;;;12.40;99.90;;;;;;5048789;28;20436;-53
2021/10/16 09:57:31;;;;;;;32.05;19.40;;;12.50;99.90;;;;;;5048096;28;20422;-57
2021/10/16 09:59:59;;;;;;;33.15;19.27;;;12.70;99.90;;;;;;5048026;28;20425;-53
2021/10/16 10:02:28;;;;;;;32.28;18.75;;;12.80;99.90;;;;;;5049789;28;20437;-53
2021/10/16 10:04:55;;;;;;;33.50;19.17;;;12.80;99.90;;;;;;5048248;28;20970;-54
2021/10/16 10:07:21;;;;;;;32.72;19.35;;;12.90;99.90;;;;;;5040327;28;20420;-53
2021/10/16 10:09:46;;;;;;;35.00;18.50;;;12.90;99.90;;;;;;5038292;28;20423;-55
2021/10/16 10:12:14;;;;;;;34.03;19.57;;;13.00;99.90;;;;;;5042839;28;20404;-54
2021/10/16 10:14:48;;;;;;;29.65;17.75;;;12.80;99.90;;;;;;5030866;28;20387;-54
2021/10/16 10:17:26;;;;;;;29.67;18.67;;;12.80;99.90;;;;;;5038140;28;20455;-54
2021/10/16 10:19:57;;;;;;;31.77;19.77;;;12.70;99.90;;;;;;5037485;28;20484;-53
2021/10/16 10:22:23;;;;;;;30.30;18.73;;;12.80;99.90;;;;;;5031526;28;20803;-53
2021/10/16 10:24:51;;;;;;;34.42;20.23;;;12.90;99.90;;;;;;5031621;28;20410;-54
2021/10/16 10:27:21;;;;;;;29.43;18.87;;;12.70;99.90;;;;;;5028946;28;20423;-54
2021/10/16 10:29:50;;;;;;;35.20;19.27;;;12.70;99.90;;;;;;5028952;28;20482;-54
2021/10/16 10:32:23;;;;;;;34.20;20.23;;;12.70;99.90;;;;;;5027887;28;20403;-54
2021/10/16 10:35:02;;;;;;;30.42;19.08;;;12.60;99.90;;;;;;5028452;28;20953;-55
2021/10/16 10:37:38;;;;;;;35.97;21.17;;;12.70;99.90;;;;;;5038331;28;20409;-54
2021/10/16 10:40:18;;;;;;;31.03;19.27;;;12.70;99.90;;;;;;5029442;28;20401;-53
2021/10/16 10:42:54;;;;;;;31.88;18.75;;;12.60;99.90;;;;;;5029030;28;20405;-54
2021/10/16 10:45:26;;;;;;;31.70;19.20;;;12.60;99.90;;;;;;5042376;28;20896;-52
2021/10/16 10:48:12;;;;;;;29.27;18.27;;;12.70;99.90;;;;;;5038096;28;21134;-54
2021/10/16 10:50:43;;;;;;;28.90;19.60;;;12.70;99.90;;;;;;5036857;28;20400;-54
2021/10/16 10:53:11;;;;;;;29.88;19.23;;;12.80;99.90;;;;;;5040316;28;20548;-52
2021/10/16 10:55:51;;;;;;;29.02;18.90;;;12.80;99.90;;;;;;5036720;28;20508;-55
2021/10/16 10:58:18;;;;;;;29.20;18.95;;;12.80;99.90;;;;;;5037292;28;20475;-53
2021/10/16 11:00:43;;;;;;;28.60;19.27;;;12.80;99.90;;;;;;5037756;28;20383;-53
2021/10/16 11:03:27;;;;;;;30.58;19.17;;;12.90;99.90;;;;;;5033002;28;20399;-52
2021/10/16 11:05:55;;;;;;;30.60;19.00;;;12.80;99.90;;;;;;5032360;28;20402;-56
2021/10/16 11:08:22;;;;;;;31.23;20.10;;;12.90;99.90;;;;;;5031865;28;20397;-52
2021/10/16 11:10:48;;;;;;;30.88;19.92;;;12.80;99.90;;;;;;5044580;28;20401;-52
2021/10/16 11:13:17;;;;;;;33.72;20.65;;;12.80;99.90;;;;;;5032936;28;20401;-55
2021/10/16 11:15:45;;;;;;;31.65;20.60;;;12.80;99.90;;;;;;5034505;28;20438;-54
2021/10/16 11:18:15;;;;;;;31.10;20.00;;;12.80;99.90;;;;;;5042063;28;20393;-52
2021/10/16 11:20:42;;;;;;;32.58;19.70;;;12.70;99.90;;;;;;5038197;28;20405;-53
2021/10/16 11:23:38;;;;;;;30.05;20.05;;;12.70;99.90;;;;;;5041277;28;20401;-52
2021/10/16 11:26:09;;;;;;;35.55;20.35;;;12.90;99.90;;;;;;5028861;28;20404;-53
2021/10/16 11:28:37;;;;;;;33.40;20.35;;;12.90;99.90;;;;;;5043954;28;20396;-54
2021/10/16 11:31:05;;;;;;;32.38;20.95;;;12.90;99.90;;;;;;5035147;28;20398;-53
2021/10/16 11:33:36;;;;;;;30.67;20.20;;;13.10;99.90;;;;;;5040483;28;20536;-56
2021/10/16 11:36:02;;;;;;;28.70;19.55;;;13.20;99.90;;;;;;5043955;28;20494;-52
2021/10/16 11:38:31;;;;;;;32.63;20.13;;;13.30;99.90;;;;;;5040818;28;20417;-52
2021/10/16 11:40:58;;;;;;;35.33;20.90;;;13.70;99.90;;;;;;5038014;28;20413;-52
2021/10/16 11:43:35;;;;;;;28.13;19.50;;;13.90;99.90;;;;;;5038008;28;20413;-53
2021/10/16 11:46:03;;;;;;;31.70;20.50;;;14.20;99.90;;;;;;5042569;28;20567;-52
2021/10/16 11:48:29;;;;;;;28.55;19.23;;;14.40;99.90;;;;;;5035083;28;20395;-55
2021/10/16 11:50:56;;;;;;;32.72;19.80;;;14.60;99.90;;;;;;5032409;28;20811;-55
2021/10/16 11:53:24;;;;;;;30.50;20.27;;;14.80;99.90;;;;;;5048741;28;20417;-54
2021/10/16 11:55:55;;;;;;;27.73;19.60;;;15.00;99.90;;;;;;5039074;28;20425;-54
2021/10/16 11:58:24;;;;;;;33.38;20.85;;;15.10;99.90;;;;;;5059043;28;20405;-55
2021/10/16 12:00:59;;;;;;;32.70;21.25;;;15.20;99.90;;;;;;5039224;28;20514;-54
2021/10/16 12:03:33;;;;;;;33.55;21.33;;;15.40;99.90;;;;;;5040296;28;20403;-54
2021/10/16 12:06:05;;;;;;;30.85;21.15;;;15.70;99.90;;;;;;5031700;28;20407;-55
2021/10/16 12:08:39;;;;;;;34.65;21.17;;;15.90;99.90;;;;;;5031480;28;20431;-58
2021/10/16 12:11:05;;;;;;;31.33;20.92;;;15.80;99.90;;;;;;5039761;28;20416;-55
2021/10/16 12:13:36;;;;;;;34.23;20.87;;;15.80;99.90;;;;;;5044242;28;20433;-55
2021/10/16 12:16:19;;;;;;;35.80;21.83;;;15.60;99.90;;;;;;5037626;28;20413;-54
2021/10/16 12:18:52;;;;;;;31.23;21.20;;;16.10;99.90;;;;;;5034463;28;20418;-54
2021/10/16 12:21:47;;;;;;;30.73;20.00;;;15.70;99.90;;;;;;5044229;28;20471;-54
2021/10/16 12:24:14;;;;;;;29.63;19.60;;;15.80;99.90;;;;;;5049038;28;20409;-54
2021/10/16 12:26:43;;;;;;;34.45;19.95;;;15.90;99.90;;;;;;5037258;28;20390;-54
2021/10/16 12:29:32;;;;;;;31.30;20.15;;;15.90;99.90;;;;;;5047942;28;20388;-55
2021/10/16 12:31:59;;;;;;;25.38;16.73;;;16.20;99.90;;;;;;5037896;28;20394;-55